sensor_id;sensor_type;location;lat;lon;timestamp;pressure;altitude;pressure_sealevel;temperature;humidity
42591;BME280;28218;53.342;-6.216;2022-09-17T00:01:34;102552.56;;;11.89;100.00
42591;BME280;28218;53.342;-6.216;2022-09-17T00:04:03;102541.31;;;11.87;100.00
42591;BME280;28218;53.342;-6.216;2022-09-17T00:06:34;102540.56;;;11.85;100.00
42591;BME280;28218;53.342;-6.216;2022-09-17T00:09:04;102532.94;;;11.82;100.00
42591;BME280;28218;53.342;-6.216;2022-09-17T00:11:35;102549.00;;;11.79;100.00
42591;BME280;28218;53.342;-6.216;2022-09-17T00:14:06;102548.31;;;11.77;100.00
42591;BME280;28218;53.342;-6.216;2022-09-17T00:16:38;102545.09;;;11.73;100.00
42591;BME280;28218;53.342;-6.216;2022-09-17T00:19:11;102532.28;;;11.69;100.00
42591;BME280;28218;53.342;-6.216;2022-09-17T00:21:40;102540.78;;;11.72;100.00
42591;BME280;28218;53.342;-6.216;2022-09-17T00:24:10;102530.22;;;11.72;100.00
42591;BME280;28218;53.342;-6.216;2022-09-17T00:26:39;102525.88;;;11.71;100.00
42591;BME280;28218;53.342;-6.216;2022-09-17T00:29:09;102533.81;;;11.71;100.00
42591;BME280;28218;53.342;-6.216;2022-09-17T00:31:37;102531.06;;;11.73;100.00
42591;BME280;28218;53.342;-6.216;2022-09-17T00:34:06;102531.88;;;11.73;100.00
42591;BME280;28218;53.342;-6.216;2022-09-17T00:36:35;102527.59;;;11.72;100.00
42591;BME280;28218;53.342;-6.216;2022-09-17T00:39:05;102528.41;;;11.73;100.00
42591;BME280;28218;53.342;-6.216;2022-09-17T00:41:34;102530.09;;;11.74;100.00
42591;BME280;28218;53.342;-6.216;2022-09-17T00:47:11;102527.00;;;11.69;100.00
42591;BME280;28218;53.342;-6.216;2022-09-17T00:49:40;102528.94;;;11.67;100.00
42591;BME280;28218;53.342;-6.216;2022-09-17T00:52:11;102521.97;;;11.66;100.00
42591;BME280;28218;53.342;-6.216;2022-09-17T00:54:45;102528.09;;;11.66;100.00
42591;BME280;28218;53.342;-6.216;2022-09-17T00:57:16;102523.19;;;11.62;100.00
42591;BME280;28218;53.342;-6.216;2022-09-17T00:59:45;102520.84;;;11.59;100.00
42591;BME280;28218;53.342;-6.216;2022-09-17T01:02:14;102518.59;;;11.54;100.00
42591;BME280;28218;53.342;-6.216;2022-09-17T01:04:43;102515.13;;;11.54;100.00
42591;BME280;28218;53.342;-6.216;2022-09-17T01:07:18;102520.41;;;11.54;100.00
42591;BME280;28218;53.342;-6.216;2022-09-17T01:09:53;102513.56;;;11.51;100.00
42591;BME280;28218;53.342;-6.216;2022-09-17T01:12:35;102514.66;;;11.48;100.00
42591;BME280;28218;53.342;-6.216;2022-09-17T01:15:16;102517.56;;;11.45;100.00
42591;BME280;28218;53.342;-6.216;2022-09-17T01:18:02;102513.94;;;11.46;100.00
42591;BME280;28218;53.342;-6.216;2022-09-17T01:20:49;102518.53;;;11.44;100.00
42591;BME280;28218;53.342;-6.216;2022-09-17T01:24:03;102514.47;;;11.40;100.00
42591;BME280;28218;53.342;-6.216;2022-09-17T01:29:58;102511.97;;;11.39;100.00
42591;BME280;28218;53.342;-6.216;2022-09-17T01:32:37;102508.47;;;11.38;100.00
42591;BME280;28218;53.342;-6.216;2022-09-17T01:35:16;102505.84;;;11.38;100.00
42591;BME280;28218;53.342;-6.216;2022-09-17T01:37:56;102504.16;;;11.37;100.00
42591;BME280;28218;53.342;-6.216;2022-09-17T01:40:31;102501.22;;;11.31;100.00
42591;BME280;28218;53.342;-6.216;2022-09-17T01:43:07;102496.91;;;11.30;100.00
42591;BME280;28218;53.342;-6.216;2022-09-17T01:45:39;102499.81;;;11.26;100.00
42591;BME280;28218;53.342;-6.216;2022-09-17T01:48:14;102494.53;;;11.26;100.00
42591;BME280;28218;53.342;-6.216;2022-09-17T01:50:48;102488.66;;;11.23;100.00
42591;BME280;28218;53.342;-6.216;2022-09-17T01:53:20;102482.81;;;11.19;100.00
42591;BME280;28218;53.342;-6.216;2022-09-17T01:55:51;102483.91;;;11.17;100.00
42591;BME280;28218;53.342;-6.216;2022-09-17T01:58:24;102481.28;;;11.17;100.00
42591;BME280;28218;53.342;-6.216;2022-09-17T02:00:57;102476.13;;;11.15;100.00
42591;BME280;28218;53.342;-6.216;2022-09-17T02:03:33;102475.56;;;11.12;100.00
42591;BME280;28218;53.342;-6.216;2022-09-17T02:06:06;102477.34;;;11.11;100.00
42591;BME280;28218;53.342;-6.216;2022-09-17T02:08:42;102474.00;;;11.09;100.00
42591;BME280;28218;53.342;-6.216;2022-09-17T02:11:13;102477.59;;;11.08;100.00
42591;BME280;28218;53.342;-6.216;2022-09-17T02:13:47;102471.63;;;11.06;100.00
42591;BME280;28218;53.342;-6.216;2022-09-17T02:16:23;102473.44;;;11.06;100.00
42591;BME280;28218;53.342;-6.216;2022-09-17T02:18:59;102476.91;;;11.06;100.00
42591;BME280;28218;53.342;-6.216;2022-09-17T02:21:38;102467.19;;;11.07;100.00
42591;BME280;28218;53.342;-6.216;2022-09-17T02:24:11;102469.09;;;11.05;100.00
42591;BME280;28218;53.342;-6.216;2022-09-17T02:26:46;102466.75;;;11.02;100.00
42591;BME280;28218;53.342;-6.216;2022-09-17T02:29:23;102462.41;;;11.00;100.00
42591;BME280;28218;53.342;-6.216;2022-09-17T02:31:54;102466.00;;;10.99;100.00
42591;BME280;28218;53.342;-6.216;2022-09-17T02:34:25;102459.91;;;10.99;100.00
42591;BME280;28218;53.342;-6.216;2022-09-17T02:36:56;102454.75;;;10.97;100.00
42591;BME280;28218;53.342;-6.216;2022-09-17T02:39:25;102468.66;;;10.99;100.00
42591;BME280;28218;53.342;-6.216;2022-09-17T02:41:59;102464.59;;;10.95;100.00
42591;BME280;28218;53.342;-6.216;2022-09-17T02:44:37;102467.22;;;10.95;100.00
42591;BME280;28218;53.342;-6.216;2022-09-17T02:47:43;102460.53;;;10.91;100.00
42591;BME280;28218;53.342;-6.216;2022-09-17T02:50:25;102458.75;;;10.92;100.00
42591;BME280;28218;53.342;-6.216;2022-09-17T02:53:04;102455.41;;;10.90;100.00
42591;BME280;28218;53.342;-6.216;2022-09-17T02:55:38;102458.03;;;10.90;100.00
42591;BME280;28218;53.342;-6.216;2022-09-17T02:58:16;102451.22;;;10.87;100.00
42591;BME280;28218;53.342;-6.216;2022-09-17T03:00:47;102443.31;;;10.87;100.00
42591;BME280;28218;53.342;-6.216;2022-09-17T03:03:20;102440.94;;;10.84;100.00
42591;BME280;28218;53.342;-6.216;2022-09-17T03:05:52;102443.56;;;10.84;100.00
42591;BME280;28218;53.342;-6.216;2022-09-17T03:08:27;102434.53;;;10.87;100.00
42591;BME280;28218;53.342;-6.216;2022-09-17T03:10:56;102441.63;;;10.86;100.00
42591;BME280;28218;53.342;-6.216;2022-09-17T03:13:24;102443.41;;;10.86;100.00
42591;BME280;28218;53.342;-6.216;2022-09-17T03:15:53;102439.94;;;10.85;100.00
42591;BME280;28218;53.342;-6.216;2022-09-17T03:18:21;102433.97;;;10.83;100.00
42591;BME280;28218;53.342;-6.216;2022-09-17T03:20:51;102427.28;;;10.79;100.00
42591;BME280;28218;53.342;-6.216;2022-09-17T03:23:19;102426.69;;;10.75;100.00
42591;BME280;28218;53.342;-6.216;2022-09-17T03:25:47;102428.38;;;10.77;100.00
42591;BME280;28218;53.342;-6.216;2022-09-17T03:28:16;102428.38;;;10.77;100.00
42591;BME280;28218;53.342;-6.216;2022-09-17T03:30:44;102430.06;;;10.78;100.00
42591;BME280;28218;53.342;-6.216;2022-09-17T03:33:13;102422.16;;;10.78;100.00
42591;BME280;28218;53.342;-6.216;2022-09-17T03:35:41;102420.34;;;10.78;100.00
42591;BME280;28218;53.342;-6.216;2022-09-17T03:38:11;102416.28;;;10.74;100.00
42591;BME280;28218;53.342;-6.216;2022-09-17T03:40:40;102415.56;;;10.72;100.00
42591;BME280;28218;53.342;-6.216;2022-09-17T03:43:08;102415.84;;;10.69;100.00
42591;BME280;28218;53.342;-6.216;2022-09-17T03:45:36;102407.19;;;10.67;100.00
42591;BME280;28218;53.342;-6.216;2022-09-17T03:48:05;102407.94;;;10.69;100.00
42591;BME280;28218;53.342;-6.216;2022-09-17T03:50:33;102412.75;;;10.64;100.00
42591;BME280;28218;53.342;-6.216;2022-09-17T03:53:01;102417.06;;;10.65;100.00
42591;BME280;28218;53.342;-6.216;2022-09-17T03:55:31;102404.56;;;10.67;100.00
42591;BME280;28218;53.342;-6.216;2022-09-17T03:57:59;102400.13;;;10.67;100.00
42591;BME280;28218;53.342;-6.216;2022-09-17T04:00:27;102404.72;;;10.65;100.00
42591;BME280;28218;53.342;-6.216;2022-09-17T04:02:55;102403.03;;;10.64;100.00
42591;BME280;28218;53.342;-6.216;2022-09-17T04:05:24;102406.66;;;10.63;100.00
42591;BME280;28218;53.342;-6.216;2022-09-17T04:07:52;102411.06;;;10.63;100.00
42591;BME280;28218;53.342;-6.216;2022-09-17T04:10:20;102400.66;;;10.61;100.00
42591;BME280;28218;53.342;-6.216;2022-09-17T04:12:50;102400.66;;;10.61;100.00
42591;BME280;28218;53.342;-6.216;2022-09-17T04:15:18;102393.84;;;10.59;100.00
42591;BME280;28218;53.342;-6.216;2022-09-17T04:17:46;102397.31;;;10.59;100.00
42591;BME280;28218;53.342;-6.216;2022-09-17T04:20:14;102398.25;;;10.58;100.00
42591;BME280;28218;53.342;-6.216;2022-09-17T04:22:43;102397.94;;;10.52;100.00
42591;BME280;28218;53.342;-6.216;2022-09-17T04:25:11;102406.09;;;10.48;100.00
42591;BME280;28218;53.342;-6.216;2022-09-17T04:27:39;102403.59;;;10.47;100.00
42591;BME280;28218;53.342;-6.216;2022-09-17T04:30:10;102406.22;;;10.47;100.00
42591;BME280;28218;53.342;-6.216;2022-09-17T04:32:38;102409.56;;;10.49;100.00
42591;BME280;28218;53.342;-6.216;2022-09-17T04:35:07;102405.16;;;10.49;100.00
42591;BME280;28218;53.342;-6.216;2022-09-17T04:37:36;102406.38;;;10.45;100.00
42591;BME280;28218;53.342;-6.216;2022-09-17T04:40:05;102404.56;;;10.46;100.00
42591;BME280;28218;53.342;-6.216;2022-09-17T04:42:34;102399.44;;;10.44;100.00
42591;BME280;28218;53.342;-6.216;2022-09-17T04:45:02;102403.13;;;10.42;100.00
42591;BME280;28218;53.342;-6.216;2022-09-17T04:47:32;102400.63;;;10.40;100.00
42591;BME280;28218;53.342;-6.216;2022-09-17T04:50:00;102406.38;;;10.34;100.00
42591;BME280;28218;53.342;-6.216;2022-09-17T04:52:28;102395.84;;;10.34;100.00
42591;BME280;28218;53.342;-6.216;2022-09-17T04:54:56;102382.56;;;10.36;100.00
42591;BME280;28218;53.342;-6.216;2022-09-17T04:57:25;102391.16;;;10.38;100.00
42591;BME280;28218;53.342;-6.216;2022-09-17T04:59:53;102388.66;;;10.36;100.00
42591;BME280;28218;53.342;-6.216;2022-09-17T05:02:21;102382.66;;;10.34;100.00
42591;BME280;28218;53.342;-6.216;2022-09-17T05:04:51;102388.66;;;10.36;100.00
42591;BME280;28218;53.342;-6.216;2022-09-17T05:07:19;102387.94;;;10.34;100.00
42591;BME280;28218;53.342;-6.216;2022-09-17T05:09:47;102390.72;;;10.33;100.00
42591;BME280;28218;53.342;-6.216;2022-09-17T05:12:15;102386.28;;;10.33;100.00
42591;BME280;28218;53.342;-6.216;2022-09-17T05:14:43;102384.75;;;10.31;100.00
42591;BME280;28218;53.342;-6.216;2022-09-17T05:17:12;102384.00;;;10.29;100.00
42591;BME280;28218;53.342;-6.216;2022-09-17T05:19:40;102375.28;;;10.28;100.00
42591;BME280;28218;53.342;-6.216;2022-09-17T05:22:09;102384.25;;;10.26;100.00
42591;BME280;28218;53.342;-6.216;2022-09-17T05:24:37;102395.03;;;10.22;100.00
42591;BME280;28218;53.342;-6.216;2022-09-17T05:27:07;102392.28;;;10.24;100.00
42591;BME280;28218;53.342;-6.216;2022-09-17T05:29:35;102408.19;;;10.22;100.00
42591;BME280;28218;53.342;-6.216;2022-09-17T05:32:04;102402.34;;;10.19;100.00
42591;BME280;28218;53.342;-6.216;2022-09-17T05:34:33;102406.91;;;10.17;100.00
42591;BME280;28218;53.342;-6.216;2022-09-17T05:37:01;102404.28;;;10.17;100.00
42591;BME280;28218;53.342;-6.216;2022-09-17T05:39:31;102399.09;;;10.15;100.00
42591;BME280;28218;53.342;-6.216;2022-09-17T05:41:59;102399.25;;;10.14;100.00
42591;BME280;28218;53.342;-6.216;2022-09-17T05:44:27;102401.19;;;10.12;100.00
42591;BME280;28218;53.342;-6.216;2022-09-17T05:46:55;102394.34;;;10.09;100.00
42591;BME280;28218;53.342;-6.216;2022-09-17T05:49:24;102395.31;;;10.08;100.00
42591;BME280;28218;53.342;-6.216;2022-09-17T05:51:52;102397.81;;;10.10;100.00
42591;BME280;28218;53.342;-6.216;2022-09-17T05:54:20;102398.78;;;10.09;100.00
42591;BME280;28218;53.342;-6.216;2022-09-17T05:56:53;102407.38;;;10.11;100.00
42591;BME280;28218;53.342;-6.216;2022-09-17T05:59:21;102396.59;;;10.14;100.00
42591;BME280;28218;53.342;-6.216;2022-09-17T06:01:49;102397.31;;;10.16;100.00
42591;BME280;28218;53.342;-6.216;2022-09-17T06:04:17;102395.16;;;10.21;100.00
42591;BME280;28218;53.342;-6.216;2022-09-17T06:06:45;102391.56;;;10.22;100.00
42591;BME280;28218;53.342;-6.216;2022-09-17T06:09:14;102401.75;;;10.27;100.00
42591;BME280;28218;53.342;-6.216;2022-09-17T06:11:42;102405.22;;;10.27;100.00
42591;BME280;28218;53.342;-6.216;2022-09-17T06:14:12;102408.31;;;10.32;100.00
42591;BME280;28218;53.342;-6.216;2022-09-17T06:16:41;102407.81;;;10.38;100.00
42591;BME280;28218;53.342;-6.216;2022-09-17T06:19:09;102402.53;;;10.38;100.00
42591;BME280;28218;53.342;-6.216;2022-09-17T06:21:37;102395.38;;;10.40;100.00
42591;BME280;28218;53.342;-6.216;2022-09-17T06:24:05;102401.19;;;10.44;100.00
42591;BME280;28218;53.342;-6.216;2022-09-17T06:26:34;102399.00;;;10.49;100.00
42591;BME280;28218;53.342;-6.216;2022-09-17T06:29:02;102396.00;;;10.54;100.00
42591;BME280;28218;53.342;-6.216;2022-09-17T06:31:32;102402.84;;;10.56;100.00
42591;BME280;28218;53.342;-6.216;2022-09-17T06:34:00;102402.97;;;10.55;100.00
42591;BME280;28218;53.342;-6.216;2022-09-17T06:36:30;102404.78;;;10.54;100.00
42591;BME280;28218;53.342;-6.216;2022-09-17T06:38:59;102405.47;;;10.56;100.00
42591;BME280;28218;53.342;-6.216;2022-09-17T06:41:27;102411.31;;;10.60;100.00
42591;BME280;28218;53.342;-6.216;2022-09-17T06:43:55;102418.66;;;10.56;100.00
42591;BME280;28218;53.342;-6.216;2022-09-17T06:46:23;102424.88;;;10.55;100.00
42591;BME280;28218;53.342;-6.216;2022-09-17T06:48:53;102425.00;;;10.54;100.00
42591;BME280;28218;53.342;-6.216;2022-09-17T06:51:22;102420.44;;;10.56;100.00
42591;BME280;28218;53.342;-6.216;2022-09-17T06:53:50;102423.09;;;10.56;100.00
42591;BME280;28218;53.342;-6.216;2022-09-17T06:56:18;102432.66;;;10.57;100.00
42591;BME280;28218;53.342;-6.216;2022-09-17T06:58:46;102427.53;;;10.55;100.00
42591;BME280;28218;53.342;-6.216;2022-09-17T07:01:15;102431.00;;;10.56;100.00
42591;BME280;28218;53.342;-6.216;2022-09-17T07:03:43;102443.44;;;10.54;100.00
42591;BME280;28218;53.342;-6.216;2022-09-17T07:06:12;102437.94;;;10.57;100.00
42591;BME280;28218;53.342;-6.216;2022-09-17T07:08:40;102431.69;;;10.58;100.00
42591;BME280;28218;53.342;-6.216;2022-09-17T07:11:09;102430.75;;;10.59;100.00
42591;BME280;28218;53.342;-6.216;2022-09-17T07:13:37;102429.66;;;10.61;100.00
42591;BME280;28218;53.342;-6.216;2022-09-17T07:16:06;102433.69;;;10.65;100.00
42591;BME280;28218;53.342;-6.216;2022-09-17T07:18:34;102431.06;;;10.65;100.00
42591;BME280;28218;53.342;-6.216;2022-09-17T07:21:04;102430.09;;;10.66;100.00
42591;BME280;28218;53.342;-6.216;2022-09-17T07:23:35;102427.59;;;10.65;100.00
42591;BME280;28218;53.342;-6.216;2022-09-17T07:26:06;102430.81;;;10.68;100.00
42591;BME280;28218;53.342;-6.216;2022-09-17T07:28:37;102433.56;;;10.67;100.00
42591;BME280;28218;53.342;-6.216;2022-09-17T07:31:06;102435.00;;;10.71;100.00
42591;BME280;28218;53.342;-6.216;2022-09-17T07:33:41;102439.19;;;10.73;100.00
42591;BME280;28218;53.342;-6.216;2022-09-17T07:36:10;102439.75;;;10.77;100.00
42591;BME280;28218;53.342;-6.216;2022-09-17T07:38:40;102438.22;;;10.74;100.00
42591;BME280;28218;53.342;-6.216;2022-09-17T07:41:10;102449.47;;;10.77;100.00
42591;BME280;28218;53.342;-6.216;2022-09-17T07:43:39;102445.38;;;10.84;100.00
42591;BME280;28218;53.342;-6.216;2022-09-17T07:46:12;102444.31;;;10.96;100.00
42591;BME280;28218;53.342;-6.216;2022-09-17T07:48:41;102443.44;;;11.07;100.00
42591;BME280;28218;53.342;-6.216;2022-09-17T07:51:14;102434.88;;;11.14;100.00
42591;BME280;28218;53.342;-6.216;2022-09-17T07:53:44;102443.22;;;11.19;100.00
42591;BME280;28218;53.342;-6.216;2022-09-17T07:56:13;102447.63;;;11.30;100.00
42591;BME280;28218;53.342;-6.216;2022-09-17T07:58:42;102454.75;;;11.39;100.00
42591;BME280;28218;53.342;-6.216;2022-09-17T08:01:11;102450.88;;;11.43;100.00
42591;BME280;28218;53.342;-6.216;2022-09-17T08:03:41;102453.97;;;11.48;100.00
42591;BME280;28218;53.342;-6.216;2022-09-17T08:06:11;102457.88;;;11.54;100.00
42591;BME280;28218;53.342;-6.216;2022-09-17T08:08:40;102452.31;;;11.57;100.00
42591;BME280;28218;53.342;-6.216;2022-09-17T08:11:12;102456.25;;;11.63;100.00
42591;BME280;28218;53.342;-6.216;2022-09-17T08:13:50;102458.75;;;11.64;100.00
42591;BME280;28218;53.342;-6.216;2022-09-17T08:16:19;102455.16;;;11.75;100.00
42591;BME280;28218;53.342;-6.216;2022-09-17T08:18:52;102458.00;;;11.83;100.00
42591;BME280;28218;53.342;-6.216;2022-09-17T08:21:20;102458.19;;;11.91;100.00
42591;BME280;28218;53.342;-6.216;2022-09-17T08:23:48;102460.53;;;11.94;100.00
42591;BME280;28218;53.342;-6.216;2022-09-17T08:26:19;102458.31;;;11.99;100.00
42591;BME280;28218;53.342;-6.216;2022-09-17T08:28:49;102465.00;;;12.03;100.00
42591;BME280;28218;53.342;-6.216;2022-09-17T08:31:18;102461.84;;;12.10;100.00
42591;BME280;28218;53.342;-6.216;2022-09-17T08:33:47;102460.72;;;12.12;100.00
42591;BME280;28218;53.342;-6.216;2022-09-17T08:36:17;102473.78;;;12.14;100.00
42591;BME280;28218;53.342;-6.216;2022-09-17T08:38:46;102471.88;;;12.16;100.00
42591;BME280;28218;53.342;-6.216;2022-09-17T08:41:24;102474.78;;;12.13;100.00
42591;BME280;28218;53.342;-6.216;2022-09-17T08:44:05;102472.41;;;12.10;100.00
42591;BME280;28218;53.342;-6.216;2022-09-17T08:46:40;102483.41;;;12.15;100.00
42591;BME280;28218;53.342;-6.216;2022-09-17T08:49:17;102484.38;;;12.14;100.00
42591;BME280;28218;53.342;-6.216;2022-09-17T08:52:08;102485.09;;;12.16;100.00
42591;BME280;28218;53.342;-6.216;2022-09-17T08:54:43;102488.84;;;12.23;100.00
42591;BME280;28218;53.342;-6.216;2022-09-17T08:57:19;102489.41;;;12.26;100.00
42591;BME280;28218;53.342;-6.216;2022-09-17T08:59:57;102479.41;;;12.30;100.00
42591;BME280;28218;53.342;-6.216;2022-09-17T09:02:49;102477.34;;;12.34;100.00
42591;BME280;28218;53.342;-6.216;2022-09-17T09:05:25;102479.44;;;12.40;100.00
42591;BME280;28218;53.342;-6.216;2022-09-17T09:08:01;102482.50;;;12.45;100.00
42591;BME280;28218;53.342;-6.216;2022-09-17T09:10:35;102483.06;;;12.48;100.00
42591;BME280;28218;53.342;-6.216;2022-09-17T09:13:14;102484.31;;;12.54;100.00
42591;BME280;28218;53.342;-6.216;2022-09-17T09:15:46;102483.91;;;12.59;100.00
42591;BME280;28218;53.342;-6.216;2022-09-17T09:18:17;102482.81;;;12.61;100.00
42591;BME280;28218;53.342;-6.216;2022-09-17T09:20:49;102487.78;;;12.64;100.00
42591;BME280;28218;53.342;-6.216;2022-09-17T09:23:23;102489.03;;;12.70;100.00
42591;BME280;28218;53.342;-6.216;2022-09-17T09:26:02;102486.69;;;12.76;100.00
42591;BME280;28218;53.342;-6.216;2022-09-17T09:28:54;102482.66;;;12.82;100.00
42591;BME280;28218;53.342;-6.216;2022-09-17T09:31:57;102489.06;;;12.89;100.00
42591;BME280;28218;53.342;-6.216;2022-09-17T09:34:28;102481.13;;;12.99;100.00
42591;BME280;28218;53.342;-6.216;2022-09-17T09:37:04;102492.63;;;13.08;100.00
42591;BME280;28218;53.342;-6.216;2022-09-17T09:39:38;102492.78;;;13.16;100.00
42591;BME280;28218;53.342;-6.216;2022-09-17T09:42:17;102482.34;;;13.24;100.00
42591;BME280;28218;53.342;-6.216;2022-09-17T09:44:48;102484.97;;;13.34;100.00
42591;BME280;28218;53.342;-6.216;2022-09-17T09:47:30;102498.19;;;13.43;100.00
42591;BME280;28218;53.342;-6.216;2022-09-17T09:50:17;102504.28;;;13.53;100.00
42591;BME280;28218;53.342;-6.216;2022-09-17T09:52:58;102502.44;;;13.64;100.00
42591;BME280;28218;53.342;-6.216;2022-09-17T09:55:39;102497.66;;;13.77;100.00
42591;BME280;28218;53.342;-6.216;2022-09-17T09:58:18;102493.53;;;13.92;100.00
42591;BME280;28218;53.342;-6.216;2022-09-17T10:00:52;102492.66;;;14.01;100.00
42591;BME280;28218;53.342;-6.216;2022-09-17T10:03:22;102493.38;;;14.03;100.00
42591;BME280;28218;53.342;-6.216;2022-09-17T10:05:53;102497.47;;;14.16;100.00
42591;BME280;28218;53.342;-6.216;2022-09-17T10:08:21;102499.94;;;14.27;100.00
42591;BME280;28218;53.342;-6.216;2022-09-17T10:10:58;102514.00;;;14.27;100.00
42591;BME280;28218;53.342;-6.216;2022-09-17T10:13:28;102514.75;;;14.20;100.00
42591;BME280;28218;53.342;-6.216;2022-09-17T10:16:15;102519.56;;;14.06;100.00
42591;BME280;28218;53.342;-6.216;2022-09-17T10:18:44;102519.88;;;14.03;100.00
42591;BME280;28218;53.342;-6.216;2022-09-17T10:21:18;102528.81;;;14.02;100.00
42591;BME280;28218;53.342;-6.216;2022-09-17T10:23:48;102544.41;;;14.05;100.00
42591;BME280;28218;53.342;-6.216;2022-09-17T10:26:22;102557.66;;;14.05;100.00
42591;BME280;28218;53.342;-6.216;2022-09-17T10:28:52;102577.88;;;14.06;100.00
42591;BME280;28218;53.342;-6.216;2022-09-17T10:31:23;102585.22;;;14.22;100.00
42591;BME280;28218;53.342;-6.216;2022-09-17T10:33:55;102604.66;;;14.41;100.00
42591;BME280;28218;53.342;-6.216;2022-09-17T10:36:39;102617.22;;;14.39;100.00
42591;BME280;28218;53.342;-6.216;2022-09-17T10:39:32;102619.03;;;14.48;100.00
42591;BME280;28218;53.342;-6.216;2022-09-17T10:42:02;102619.75;;;14.68;100.00
42591;BME280;28218;53.342;-6.216;2022-09-17T10:44:33;102642.28;;;14.81;100.00
42591;BME280;28218;53.342;-6.216;2022-09-17T10:47:05;102638.56;;;14.74;100.00
42591;BME280;28218;53.342;-6.216;2022-09-17T10:49:38;102636.22;;;14.71;100.00
42591;BME280;28218;53.342;-6.216;2022-09-17T10:52:11;102632.38;;;14.83;100.00
42591;BME280;28218;53.342;-6.216;2022-09-17T10:55:06;102626.06;;;14.85;100.00
42591;BME280;28218;53.342;-6.216;2022-09-17T10:58:03;102638.56;;;14.74;100.00
42591;BME280;28218;53.342;-6.216;2022-09-17T11:00:43;102641.56;;;14.62;100.00
42591;BME280;28218;53.342;-6.216;2022-09-17T11:03:37;102639.91;;;14.61;100.00
42591;BME280;28218;53.342;-6.216;2022-09-17T11:09:14;102622.63;;;15.20;100.00
42591;BME280;28218;53.342;-6.216;2022-09-17T11:11:56;102631.03;;;15.15;100.00
42591;BME280;28218;53.342;-6.216;2022-09-17T11:14:49;102635.66;;;15.13;100.00
42591;BME280;28218;53.342;-6.216;2022-09-17T11:17:40;102630.63;;;15.10;100.00
42591;BME280;28218;53.342;-6.216;2022-09-17T11:20:23;102627.84;;;15.12;100.00
42591;BME280;28218;53.342;-6.216;2022-09-17T11:23:04;102623.41;;;15.38;100.00
42591;BME280;28218;53.342;-6.216;2022-09-17T11:25:43;102618.63;;;15.59;100.00
42591;BME280;28218;53.342;-6.216;2022-09-17T11:28:25;102608.09;;;15.50;100.00
42591;BME280;28218;53.342;-6.216;2022-09-17T11:31:07;102615.41;;;15.30;100.00
42591;BME280;28218;53.342;-6.216;2022-09-17T11:33:50;102616.16;;;15.04;100.00
42591;BME280;28218;53.342;-6.216;2022-09-17T11:36:25;102612.66;;;14.86;100.00
42591;BME280;28218;53.342;-6.216;2022-09-17T11:38:59;102608.44;;;15.11;100.00
42591;BME280;28218;53.342;-6.216;2022-09-17T11:41:38;102612.69;;;15.48;100.00
42591;BME280;28218;53.342;-6.216;2022-09-17T11:44:12;102608.25;;;15.92;100.00
42591;BME280;28218;53.342;-6.216;2022-09-17T11:46:44;102608.53;;;16.15;100.00
42591;BME280;28218;53.342;-6.216;2022-09-17T11:49:22;102617.03;;;16.19;100.00
42591;BME280;28218;53.342;-6.216;2022-09-17T11:51:56;102615.16;;;16.11;100.00
42591;BME280;28218;53.342;-6.216;2022-09-17T11:54:28;102621.88;;;15.97;100.00
42591;BME280;28218;53.342;-6.216;2022-09-17T11:57:05;102622.09;;;15.78;100.00
42591;BME280;28218;53.342;-6.216;2022-09-17T11:59:40;102612.03;;;15.64;100.00
42591;BME280;28218;53.342;-6.216;2022-09-17T12:02:18;102606.81;;;15.80;100.00
42591;BME280;28218;53.342;-6.216;2022-09-17T12:04:54;102607.97;;;16.03;100.00
42591;BME280;28218;53.342;-6.216;2022-09-17T12:07:42;102614.06;;;16.30;100.00
42591;BME280;28218;53.342;-6.216;2022-09-17T12:10:24;102606.88;;;16.65;100.00
42591;BME280;28218;53.342;-6.216;2022-09-17T12:13:01;102607.31;;;16.94;100.00
42591;BME280;28218;53.342;-6.216;2022-09-17T12:15:33;102603.00;;;17.26;100.00
42591;BME280;28218;53.342;-6.216;2022-09-17T12:18:11;102612.63;;;17.59;100.00
42591;BME280;28218;53.342;-6.216;2022-09-17T12:21:00;102606.69;;;17.74;100.00
42591;BME280;28218;53.342;-6.216;2022-09-17T12:23:37;102617.81;;;17.53;100.00
42591;BME280;28218;53.342;-6.216;2022-09-17T12:26:15;102610.69;;;17.37;100.00
42591;BME280;28218;53.342;-6.216;2022-09-17T12:28:54;102599.66;;;17.16;100.00
42591;BME280;28218;53.342;-6.216;2022-09-17T12:31:32;102600.16;;;17.11;100.00
42591;BME280;28218;53.342;-6.216;2022-09-17T12:34:15;102591.69;;;17.16;100.00
42591;BME280;28218;53.342;-6.216;2022-09-17T12:36:53;102598.50;;;17.34;100.00
42591;BME280;28218;53.342;-6.216;2022-09-17T12:39:58;102588.03;;;17.41;100.00
42591;BME280;28218;53.342;-6.216;2022-09-17T12:42:40;102587.34;;;17.47;100.00
42591;BME280;28218;53.342;-6.216;2022-09-17T12:45:23;102591.66;;;17.40;100.00
42591;BME280;28218;53.342;-6.216;2022-09-17T12:48:28;102588.53;;;17.20;100.00
42591;BME280;28218;53.342;-6.216;2022-09-17T12:51:13;102588.69;;;16.94;100.00
42591;BME280;28218;53.342;-6.216;2022-09-17T12:53:53;102590.00;;;16.90;100.00
42591;BME280;28218;53.342;-6.216;2022-09-17T12:56:35;102589.34;;;17.04;100.00
42591;BME280;28218;53.342;-6.216;2022-09-17T12:59:08;102599.66;;;17.16;100.00
42591;BME280;28218;53.342;-6.216;2022-09-17T13:01:39;102589.53;;;17.27;100.00
42591;BME280;28218;53.342;-6.216;2022-09-17T13:04:22;102595.84;;;17.43;100.00
42591;BME280;28218;53.342;-6.216;2022-09-17T13:07:44;102581.47;;;17.68;100.00
42591;BME280;28218;53.342;-6.216;2022-09-17T13:10:56;102573.50;;;17.76;100.00
42591;BME280;28218;53.342;-6.216;2022-09-17T13:13:36;102582.00;;;17.47;100.00